logo
App data

Ball of Light

Take the challenge of nature! In your control is real fireball with different opportunities . Pass all 7 tests nonstop. You have limited amount of energy, you should spend it wisely, expect to attack and moving. Only standing will not work!
Store | Hub | SteamDB
Developer: Nikolay Novikov Publisher: !Lim studio
Genre: Adventure, Casual, Indie
Languages: English
Tags: Indie (23), Adventure (23), Casual (22)
Category: Single-player, Full controller support, Steam Trading Cards
Release date: Dec 9, 2016
Price: $3.99
Score rank: 2% Userscore: 20% Old userscore: 48%
Owners: 200,000 .. 500,000
Followers: 112
Peak concurrent players yesterday: 5
YouTube stats: 2 views and 0 comments for videos uploaded last week, 1 new videos uploaded yesterday.
Playtime in the last 2 weeks: 150:17 (average) 150:17 (median)
Playtime total: 12:19 (average) 03:32 (median)

Steam Spy is still in beta, so expect major bugs.

Owners data:

Access restricted.

This feature is only available to users with special access rights. Sorry.

If you want to proceed, you need to register or log in first and then back Steam Spy on Patreon. Look for Indie or Pro pledge.

Don't forget to use the same email as on Steam Spy!

Audience in 2 weeks:

Access restricted.

This feature is only available to users with special access rights. Sorry.

If you want to proceed, you need to register or log in first and then back Steam Spy on Patreon. Look for Indie or Pro pledge.

Don't forget to use the same email as on Steam Spy!

Peak daily concurrent players:

CCU data courtesy of SteamDB. Used with permission.

Hourly concurrent players:

YouTube:

The views data is based on top 50 videos uploaded last week. Actual number of views might be more than the number shown.

The displayed number of videos uploaded yesterday is limited to 50, so if there were more videos uploaded, the number will still show 50.

If the game has commonly used word as its name (like "FEAR" or "Volume") its number of Youtube views might be wrong.

Games similar to this one:

# Game Release date
Price
Score rank
(Userscore / Metascore)
Owners
Players
Playtime (Median)
1 Buried: An Interactive Story Jan 22, 2016 $2.9995% (96%)0 .. 20,0000%00:00 (00:00)
2 Highrise Heroes: Word Challenge Jan 8, 2016 $4.9993% (95%)0 .. 20,0000%00:00 (00:00)
3 Rusty Lake Hotel Jan 29, 2016 $1.9987% (93%/65%)50,000 .. 100,0002.4%04:17 (04:17)
4 Dark Echo May 11, 2015 $2.9984% (92%)20,000 .. 50,0001.47%00:43 (00:14)
5 FLAMBERGE ||| SIMULTANEOUS TACTICS Mar 25, 2015 $9.9980% (91%)0 .. 20,0000%00:00 (00:00)
6 199X Dec 11, 2014 $1.9977% (90%)0 .. 20,0000%00:00 (00:00)
7 Silver Creek Falls: Chapter 2 Sep 30, 2015 $4.99N/A (N/A)0 .. 20,0000%00:00 (00:00)
8 School of Talent: SUZU-ROUTE Feb 23, 2017 $8.9969% (87%)0 .. 20,0000%00:00 (00:00)
9 Mr. Pumpkin Adventure Jul 8, 2016 $3.9969% (87%)0 .. 20,0000%00:00 (00:00)
10 Stories Untold Feb 27, 2017 $9.9969% (87%/81%)100,000 .. 200,0000%00:00 (00:00)
11 Night Shift Feb 23, 2015 $4.9963% (85%)0 .. 20,0000%00:00 (00:00)
12 Reflection of Mine Feb 24, 2017 $7.9958% (83%)0 .. 20,0000%00:00 (00:00)
13 Serafina's Crown Mar 15, 2016 $7.99N/A (N/A)20,000 .. 50,0000%00:00 (00:00)
14 Breathing Fear Oct 7, 2016 $0.556% (82%)20,000 .. 50,0001.52%00:03 (00:01)
15 Dead Secret Mar 28, 2016 $14.9951% (80%)20,000 .. 50,0000%00:00 (00:00)
16 The Narrator Is a DICK Jun 14, 2016 $4.9949% (79%)0 .. 20,00011.11%00:59 (00:19)
17 East Tower - Takashi May 27, 2015 $5.99N/A (N/A)0 .. 20,0000%00:00 (00:00)
18 The Rivers of Alice - Extended Version Nov 16, 2015 $7.9947% (78%)0 .. 20,0000%00:00 (00:00)
19 Shutter Apr 2, 2015 $1.9945% (77%)20,000 .. 50,0000%00:00 (00:00)
20 samurai_jazz Jan 27, 2015 $0.9940% (74%)0 .. 20,0000%00:00 (00:00)
21 Blueberry Garden Jun 2009 $4.9940% (74%/68%)20,000 .. 50,0000%00:00 (00:00)
22 Shadow Puppeteer Sep 29, 2014 $3.7440% (74%/57%)50,000 .. 100,0000%00:00 (00:00)
23 Scrap Garden May 6, 2016 $9.9936% (72%/58%)100,000 .. 200,0000%00:00 (00:00)
24 A Detective's Novel Jul 28, 2016 $0.49N/A (N/A)200,000 .. 500,0001.57%04:03 (04:22)
25 Unearthed Inc: The Lost Temple Dec 16, 2016 N/AN/A (N/A)0 .. 20,0000%00:00 (00:00)
26 Planetship Feb 6, 2015 $8.9933% (70%)0 .. 20,0000%00:00 (00:00)
27 City Quest Aug 20, 2015 $1.99N/A (N/A)0 .. 20,0000%00:00 (00:00)
28 You Deserve Aug 19, 2016 $0.9931% (69%)20,000 .. 50,0000%00:00 (00:00)
29 CRIMSON ROOM DECADE Jun 9, 2016 $9.99N/A (N/A)0 .. 20,0000%00:00 (00:00)
30 The Adventures of Fatman Oct 1, 2015 $1.99N/A (N/A)0 .. 20,0000%00:00 (00:00)
31 Pneuma: Breath of Life Feb 27, 2015 $19.9930% (68%/63%)0 .. 20,0000%00:00 (00:00)
32 Draw Slasher Oct 13, 2016 $4.9930% (68%)0 .. 20,0000%00:00 (00:00)
33 Hamilton's Great Adventure May 31, 2011 $9.9928% (67%/77%)100,000 .. 200,0000.65%02:04 (00:41)
34 Enola Sep 18, 2014 $14.9925% (65%)20,000 .. 50,0000%00:00 (00:00)
35 The Butterfly Sign Dec 13, 2016 $4.9922% (62%)200,000 .. 500,0000%00:00 (00:00)
36 Catmouth Island Dec 31, 2014 $0.9921% (61%)20,000 .. 50,0000%00:00 (00:00)
37 Maria the Witch Mar 1, 2016 $4.9920% (60%)0 .. 20,0000%00:00 (00:00)
38 ENKI Jul 31, 2015 $4.9917% (58%/43%)20,000 .. 50,0000%00:00 (00:00)
39 Space Incident Sep 23, 2016 $3.9917% (58%)100,000 .. 200,0000.17%02:24 (00:48)
40 Sideway New York Nov 15, 2011 $9.9915% (56%/71%)50,000 .. 100,0000%00:00 (00:00)
41 Little Jack's Adventures Dec 28, 2016 $0.99N/A (N/A)50,000 .. 100,0000%00:00 (00:00)
42 Rock Zombie Nov 20, 2014 $6.99N/A (N/A)0 .. 20,0000%00:00 (00:00)
43 Alchemist Dec 29, 2016 $2.9914% (54%)20,000 .. 50,0000%00:00 (00:00)
44 Not without my donuts Apr 28, 2015 $3.99N/A (N/A)20,000 .. 50,0000%00:00 (00:00)
45 Penumbra: Requiem N/A12% (51%/67%)0 .. 20,0000.22%02:27 (00:49)
46 Last Inua Dec 11, 2014 $7.9911% (49%)20,000 .. 50,0000%00:00 (00:00)
47 Shattered Haven Mar 18, 2013 $9.998% (45%/59%)50,000 .. 100,0000%00:00 (00:00)
48 Lex Mortis Feb 9, 2015 $4.997% (42%)200,000 .. 500,0000%00:00 (00:00)
49 'n Verlore Verstand Apr 5, 2016 $14.997% (41%)50,000 .. 100,0000%00:00 (00:00)
50 Krampus Oct 18, 2016 $4.996% (40%)100,000 .. 200,0000.24%08:50 (02:56)
51 Magdalena Feb 22, 2016 $2.995% (35%)200,000 .. 500,0000%00:00 (00:00)
52 Bibou Apr 29, 2016 $0.794% (34%)200,000 .. 500,0000%00:00 (00:00)
53 Time Of Silence Dec 6, 2016 $0.993% (30%)100,000 .. 200,0000%00:00 (00:00)
54 Worst Case Z Apr 15, 2016 $12.99N/A (N/A)0 .. 20,0000%00:00 (00:00)
55 Tesla Breaks the World! Nov 26, 2014 $9.99N/A (N/A)0 .. 20,0000%00:00 (00:00)
56 Lone Leader Oct 28, 2016 $0.992% (20%)200,000 .. 500,0000%00:00 (00:00)
57 The Spirit Underneath Jan 2, 2017 $0.991% (16%)200,000 .. 500,0000%00:00 (00:00)
58 Chowderchu Jan 4, 2016 $2.99N/A (N/A)20,000 .. 50,0004.04%03:48 (05:06)
59 Incognito Dec 9, 2009 $7.99N/A (N/A)0 .. 20,0000%00:00 (00:00)
60 Yasai Ninja Jul 21, 2015 $1.99N/A (N/A)0 .. 20,0000%00:00 (00:00)
61 Replay - VHS is not dead Jul 9, 2015 $9.99N/A (N/A)0 .. 20,0000%00:00 (00:00)
62 Haywire on Fuel Station Zeta Sep 24, 2015 $3.99N/A (N/A)20,000 .. 50,0000%00:00 (00:00)
63 Pillar May 29, 2015 $7.99N/A (N/A)20,000 .. 50,0000%00:00 (00:00)
64 Dungeon Lurk II - Leona Oct 27, 2014 $9.99N/A (N/A)0 .. 20,0000%00:00 (00:00)

Tags over time:

Access restricted.

This feature is only available to users with special access rights. Sorry.

If you want to proceed, you need to register or log in first and then back Steam Spy on Patreon. Look for Indie or Pro pledge.

Don't forget to use the same email as on Steam Spy!

Owners of this game also own:

Access restricted.

This feature is only available to users with special access rights. Sorry.

If you want to proceed, you need to register or log in first and then back Steam Spy on Patreon. Look for Indie or Pro pledge.

Don't forget to use the same email as on Steam Spy!

Playtime distribution:

Access restricted.

This feature is only available to users with special access rights. Sorry.

If you want to proceed, you need to register or log in first and then back Steam Spy on Patreon. Look for Indie or Pro pledge.

Don't forget to use the same email as on Steam Spy!

Playtime (2 weeks):

Access restricted.

This feature is only available to users with special access rights. Sorry.

If you want to proceed, you need to register or log in first and then back Steam Spy on Patreon. Look for Indie or Pro pledge.

Don't forget to use the same email as on Steam Spy!

User reviews:

Login required.

Please register or log in to see this information.